Wetterdaten: Woche 05.09.05 - 11.09.05 (KW36)
Datum Zeit Temperatur Luftfeuchte Luftdruck Niederschlag Windrichtung Wind
05.09.2005 00:00 14,2 C 73 % 1022 hPa 0,0 l/m N 1,8 km/h (1 Bft)
05.09.2005 01:00 13,4 C 78 % 1021 hPa 0,0 l/m NW 6,3 km/h (2 Bft)
05.09.2005 02:00 12,7 C 82 % 1021 hPa 0,0 l/m NW 4,3 km/h (1 Bft)
05.09.2005 03:00 12,1 C 85 % 1020 hPa 0,0 l/m NW 3,5 km/h (1 Bft)
05.09.2005 04:00 11,5 C 89 % 1020 hPa 0,0 l/m W-NW 5,7 km/h (1 Bft)
05.09.2005 05:00 11,0 C 93 % 1020 hPa 0,0 l/m NW 5,3 km/h (1 Bft)
05.09.2005 06:00 10,6 C 95 % 1019 hPa 0,0 l/m NW 1,1 km/h (0 Bft)
05.09.2005 07:00 10,6 C 96 % 1019 hPa 0,0 l/m N 0,0 km/h (0 Bft)
05.09.2005 08:00 11,8 C 97 % 1019 hPa 0,0 l/m N-NO 2,1 km/h (1 Bft)
05.09.2005 09:00 13,9 C 91 % 1019 hPa 0,0 l/m N-NW 5,5 km/h (1 Bft)
05.09.2005 10:00 17,8 C 74 % 1019 hPa 0,0 l/m O 3,8 km/h (1 Bft)
05.09.2005 11:00 21,1 C 61 % 1019 hPa 0,0 l/m O 5,8 km/h (2 Bft)
05.09.2005 12:00 22,8 C 55 % 1018 hPa 0,0 l/m O-SO 7,6 km/h (2 Bft)
05.09.2005 13:00 24,3 C 53 % 1018 hPa 0,0 l/m O 8,6 km/h (2 Bft)
05.09.2005 14:00 26,0 C 48 % 1017 hPa 0,0 l/m O-NO 8,2 km/h (2 Bft)
05.09.2005 15:00 26,7 C 39 % 1017 hPa 0,0 l/m S 11,4 km/h (2 Bft)
05.09.2005 16:00 25,9 C 36 % 1016 hPa 0,0 l/m S 9,2 km/h (2 Bft)
05.09.2005 17:00 25,4 C 35 % 1015 hPa 0,0 l/m S 11,3 km/h (2 Bft)
05.09.2005 18:00 25,3 C 38 % 1015 hPa 0,0 l/m SW 2,6 km/h (1 Bft)
05.09.2005 19:00 21,9 C 51 % 1015 hPa 0,0 l/m N 0,0 km/h (0 Bft)
05.09.2005 20:00 19,2 C 61 % 1015 hPa 0,0 l/m N 0,1 km/h (0 Bft)
05.09.2005 21:00 17,1 C 69 % 1016 hPa 0,0 l/m N 0,0 km/h (0 Bft)
05.09.2005 22:00 15,9 C 74 % 1015 hPa 0,0 l/m W 0,4 km/h (0 Bft)
05.09.2005 23:00 15,2 C 78 % 1015 hPa 0,0 l/m W-NW 0,3 km/h (0 Bft)
06.09.2005 00:00 14,5 C 85 % 1016 hPa 0,0 l/m W 4,1 km/h (1 Bft)
06.09.2005 01:00 14,1 C 87 % 1015 hPa 0,0 l/m N 0,0 km/h (0 Bft)
06.09.2005 02:00 13,4 C 90 % 1015 hPa 0,0 l/m N 0,0 km/h (0 Bft)
06.09.2005 03:00 12,8 C 93 % 1015 hPa 0,0 l/m N 0,0 km/h (0 Bft)
06.09.2005 04:00 12,2 C 95 % 1015 hPa 0,0 l/m N 0,0 km/h (0 Bft)
06.09.2005 05:00 12,0 C 96 % 1015 hPa 0,0 l/m N 0,0 km/h (0 Bft)
06.09.2005 06:00 11,5 C 97 % 1015 hPa 0,0 l/m N 0,0 km/h (0 Bft)
06.09.2005 07:00 11,5 C 97 % 1015 hPa 0,0 l/m N 0,0 km/h (0 Bft)
06.09.2005 08:00 13,2 C 98 % 1015 hPa 0,0 l/m N-NO 0,5 km/h (0 Bft)
06.09.2005 09:00 15,5 C 97 % 1015 hPa 0,0 l/m N 0,0 km/h (0 Bft)
06.09.2005 10:00 19,3 C 81 % 1015 hPa 0,0 l/m S-SO 1,5 km/h (1 Bft)
06.09.2005 11:00 22,4 C 59 % 1015 hPa 0,0 l/m O 7,1 km/h (2 Bft)
06.09.2005 12:00 24,2 C 39 % 1014 hPa 0,0 l/m O 8,0 km/h (2 Bft)
06.09.2005 13:00 25,7 C 34 % 1014 hPa 0,0 l/m O 6,8 km/h (2 Bft)
06.09.2005 14:00 26,9 C 33 % 1013 hPa 0,0 l/m O-NO 11,6 km/h (2 Bft)
06.09.2005 15:00 27,4 C 32 % 1013 hPa 0,0 l/m O-NO 12,2 km/h (2 Bft)
06.09.2005 16:00 26,4 C 35 % 1013 hPa 0,0 l/m O 12,4 km/h (3 Bft)
06.09.2005 17:00 25,5 C 41 % 1012 hPa 0,0 l/m O 10,6 km/h (2 Bft)
06.09.2005 18:00 25,0 C 43 % 1012 hPa 0,0 l/m O-NO 11,8 km/h (2 Bft)
06.09.2005 19:00 22,9 C 50 % 1012 hPa 0,0 l/m O-NO 2,8 km/h (1 Bft)
06.09.2005 20:00 20,2 C 62 % 1012 hPa 0,0 l/m N 0,0 km/h (0 Bft)
06.09.2005 21:00 18,6 C 69 % 1012 hPa 0,0 l/m N 0,0 km/h (0 Bft)
06.09.2005 22:00 17,3 C 75 % 1012 hPa 0,0 l/m N 0,0 km/h (0 Bft)
06.09.2005 23:00 16,5 C 80 % 1012 hPa 0,0 l/m N 0,0 km/h (0 Bft)
07.09.2005 00:00 15,8 C 84 % 1012 hPa 0,0 l/m W 1,6 km/h (1 Bft)
07.09.2005 01:00 15,3 C 86 % 1012 hPa 0,0 l/m W 1,9 km/h (1 Bft)
07.09.2005 02:00 14,5 C 89 % 1012 hPa 0,0 l/m W-NW 0,4 km/h (0 Bft)
07.09.2005 03:00 13,7 C 92 % 1013 hPa 0,0 l/m N 0,0 km/h (0 Bft)
07.09.2005 04:00 13,2 C 95 % 1013 hPa 0,0 l/m N 0,0 km/h (0 Bft)
07.09.2005 05:00 12,4 C 95 % 1012 hPa 0,0 l/m N 0,0 km/h (0 Bft)
07.09.2005 06:00 12,0 C 96 % 1012 hPa 0,0 l/m N 0,0 km/h (0 Bft)
07.09.2005 07:00 11,8 C 97 % 1012 hPa 0,0 l/m N 0,0 km/h (0 Bft)
07.09.2005 08:00 13,4 C 98 % 1013 hPa 0,0 l/m N 0,0 km/h (0 Bft)
07.09.2005 09:00 15,8 C 89 % 1013 hPa 0,0 l/m N 0,0 km/h (0 Bft)
07.09.2005 10:00 20,1 C 61 % 1013 hPa 0,0 l/m N 0,0 km/h (0 Bft)
07.09.2005 11:00 23,7 C 44 % 1014 hPa 0,0 l/m N 0,0 km/h (0 Bft)
07.09.2005 12:00 25,4 C 36 % 1014 hPa 0,0 l/m S 7,8 km/h (2 Bft)
07.09.2005 13:00 26,9 C 33 % 1014 hPa 0,0 l/m S 6,3 km/h (2 Bft)
07.09.2005 14:00 28,4 C 31 % 1013 hPa 0,0 l/m O 6,4 km/h (2 Bft)
07.09.2005 15:00 28,9 C 26 % 1014 hPa 0,0 l/m W-SW 8,6 km/h (2 Bft)
07.09.2005 16:00 27,7 C 28 % 1014 hPa 0,0 l/m W-SW 6,9 km/h (2 Bft)
07.09.2005 17:00 27,2 C 31 % 1014 hPa 0,0 l/m W-SW 4,2 km/h (1 Bft)
07.09.2005 18:00 27,3 C 33 % 1014 hPa 0,0 l/m W-SW 2,9 km/h (1 Bft)
07.09.2005 19:00 23,0 C 45 % 1015 hPa 0,0 l/m N 0,0 km/h (0 Bft)
07.09.2005 20:00 19,7 C 55 % 1015 hPa 0,0 l/m N 0,0 km/h (0 Bft)
07.09.2005 21:00 17,7 C 61 % 1016 hPa 0,0 l/m N 0,0 km/h (0 Bft)
07.09.2005 22:00 16,4 C 68 % 1017 hPa 0,0 l/m N-NW 0,2 km/h (0 Bft)
07.09.2005 23:00 15,3 C 74 % 1017 hPa 0,0 l/m N 0,0 km/h (0 Bft)
08.09.2005 00:00 14,5 C 78 % 1017 hPa 0,0 l/m N 0,0 km/h (0 Bft)
08.09.2005 01:00 13,8 C 83 % 1017 hPa 0,0 l/m N 0,0 km/h (0 Bft)
08.09.2005 02:00 13,4 C 87 % 1017 hPa 0,0 l/m N 0,0 km/h (0 Bft)
08.09.2005 03:00 13,1 C 90 % 1017 hPa 0,0 l/m N 0,0 km/h (0 Bft)
08.09.2005 04:00 12,4 C 91 % 1018 hPa 0,0 l/m N 0,0 km/h (0 Bft)
08.09.2005 05:00 12,1 C 93 % 1018 hPa 0,0 l/m N 0,0 km/h (0 Bft)
08.09.2005 06:00 11,8 C 95 % 1018 hPa 0,0 l/m N 0,0 km/h (0 Bft)
08.09.2005 07:00 11,7 C 96 % 1018 hPa 0,0 l/m N 0,0 km/h (0 Bft)
08.09.2005 08:00 13,0 C 97 % 1018 hPa 0,0 l/m N 0,0 km/h (0 Bft)
08.09.2005 09:00 16,0 C 93 % 1018 hPa 0,0 l/m O-SO 3,6 km/h (1 Bft)
08.09.2005 10:00 20,7 C 68 % 1018 hPa 0,0 l/m O 4,8 km/h (1 Bft)
08.09.2005 11:00 23,6 C 55 % 1018 hPa 0,0 l/m S 4,9 km/h (1 Bft)
08.09.2005 12:00 24,9 C 49 % 1018 hPa 0,0 l/m S 7,2 km/h (2 Bft)
08.09.2005 13:00 26,4 C 44 % 1017 hPa 0,0 l/m O 1,0 km/h (0 Bft)
08.09.2005 14:00 27,8 C 40 % 1017 hPa 0,0 l/m W 0,9 km/h (0 Bft)
08.09.2005 15:00 28,4 C 37 % 1016 hPa 0,0 l/m O-NO 3,8 km/h (1 Bft)
08.09.2005 16:00 27,2 C 39 % 1016 hPa 0,0 l/m O 1,7 km/h (1 Bft)
08.09.2005 17:00 26,6 C 40 % 1015 hPa 0,0 l/m O-NO 3,1 km/h (1 Bft)
08.09.2005 18:00 26,3 C 41 % 1015 hPa 0,0 l/m N 0,0 km/h (0 Bft)
08.09.2005 19:00 23,7 C 52 % 1014 hPa 0,0 l/m N 0,0 km/h (0 Bft)
08.09.2005 20:00 20,9 C 64 % 1014 hPa 0,0 l/m N 0,0 km/h (0 Bft)
08.09.2005 21:00 19,5 C 69 % 1014 hPa 0,0 l/m N 0,0 km/h (0 Bft)
08.09.2005 22:00 18,4 C 73 % 1014 hPa 0,0 l/m N 0,0 km/h (0 Bft)
08.09.2005 23:00 17,5 C 78 % 1014 hPa 0,0 l/m N 0,0 km/h (0 Bft)
09.09.2005 00:00 16,9 C 81 % 1014 hPa 0,0 l/m NW 2,8 km/h (1 Bft)
09.09.2005 01:00 16,6 C 83 % 1014 hPa 0,0 l/m W-NW 4,1 km/h (1 Bft)
09.09.2005 02:00 16,3 C 85 % 1013 hPa 0,0 l/m N 0,0 km/h (0 Bft)
09.09.2005 03:00 15,8 C 88 % 1013 hPa 0,0 l/m N 0,0 km/h (0 Bft)
09.09.2005 04:00 15,7 C 90 % 1013 hPa 0,0 l/m N 0,0 km/h (0 Bft)
09.09.2005 05:00 15,5 C 91 % 1013 hPa 0,0 l/m N 0,0 km/h (0 Bft)
09.09.2005 06:00 15,6 C 93 % 1013 hPa 0,0 l/m N 0,0 km/h (0 Bft)
09.09.2005 07:00 15,3 C 94 % 1013 hPa 0,0 l/m N 0,0 km/h (0 Bft)
09.09.2005 08:00 15,5 C 96 % 1012 hPa 0,0 l/m N 0,0 km/h (0 Bft)
09.09.2005 09:00 16,9 C 92 % 1013 hPa 0,0 l/m N 0,0 km/h (0 Bft)
09.09.2005 10:00 19,6 C 75 % 1013 hPa 0,0 l/m N 0,0 km/h (0 Bft)
09.09.2005 11:00 24,0 C 51 % 1012 hPa 0,0 l/m N 0,0 km/h (0 Bft)
09.09.2005 12:00 25,6 C 42 % 1012 hPa 0,0 l/m N 0,0 km/h (0 Bft)
09.09.2005 13:00 26,9 C 36 % 1012 hPa 0,0 l/m S-SW 2,3 km/h (1 Bft)
09.09.2005 14:00 27,4 C 34 % 1011 hPa 0,0 l/m W 1,9 km/h (1 Bft)
09.09.2005 15:00 28,0 C 32 % 1011 hPa 0,0 l/m O-NO 2,6 km/h (1 Bft)
09.09.2005 16:00 26,4 C 36 % 1010 hPa 0,0 l/m W-SW 0,2 km/h (0 Bft)
09.09.2005 17:00 23,9 C 49 % 1011 hPa 0,0 l/m W-NW 2,1 km/h (1 Bft)
09.09.2005 18:00 21,4 C 62 % 1011 hPa 0,0 l/m N 0,0 km/h (0 Bft)
09.09.2005 19:00 20,4 C 72 % 1011 hPa 0,0 l/m W 0,6 km/h (0 Bft)
09.09.2005 20:00 18,3 C 77 % 1012 hPa 6,0 l/m S 5,6 km/h (1 Bft)
09.09.2005 21:00 16,2 C 96 % 1013 hPa 3,0 l/m S-SW 11,0 km/h (2 Bft)
09.09.2005 22:00 16,3 C 98 % 1013 hPa 3,0 l/m S-SW 8,9 km/h (2 Bft)
09.09.2005 23:00 16,0 C 98 % 1013 hPa 1,0 l/m S-SW 3,1 km/h (1 Bft)
10.09.2005 00:00 16,0 C 99 % 1013 hPa 1,0 l/m S 1,2 km/h (1 Bft)
10.09.2005 01:00 16,1 C 99 % 1013 hPa 1,0 l/m N 0,0 km/h (0 Bft)
10.09.2005 02:00 16,0 C 100 % 1013 hPa 1,0 l/m S 1,4 km/h (1 Bft)
10.09.2005 03:00 15,8 C 100 % 1013 hPa 0,0 l/m S 5,0 km/h (1 Bft)
10.09.2005 04:00 15,7 C 100 % 1013 hPa 0,0 l/m S 4,0 km/h (1 Bft)
10.09.2005 05:00 15,7 C 100 % 1012 hPa 1,0 l/m S 2,9 km/h (1 Bft)
10.09.2005 06:00 15,8 C 100 % 1012 hPa 0,0 l/m S 2,3 km/h (1 Bft)
10.09.2005 07:00 15,9 C 100 % 1012 hPa 0,0 l/m S 6,2 km/h (2 Bft)
10.09.2005 08:00 15,9 C 100 % 1012 hPa 0,0 l/m S 5,9 km/h (2 Bft)
10.09.2005 09:00 16,1 C 100 % 1013 hPa 1,0 l/m N 0,0 km/h (0 Bft)
10.09.2005 10:00 16,3 C 100 % 1013 hPa 1,0 l/m S-SW 3,0 km/h (1 Bft)
10.09.2005 11:00 16,5 C 100 % 1013 hPa 2,0 l/m S 1,8 km/h (1 Bft)
10.09.2005 12:00 16,7 C 100 % 1013 hPa 2,0 l/m W-SW 0,3 km/h (0 Bft)
10.09.2005 13:00 16,8 C 100 % 1013 hPa 3,0 l/m W-SW 1,7 km/h (1 Bft)
10.09.2005 14:00 16,9 C 99 % 1013 hPa 1,0 l/m W-SW 1,3 km/h (1 Bft)
10.09.2005 15:00 17,2 C 99 % 1013 hPa 0,0 l/m S 1,0 km/h (0 Bft)
10.09.2005 16:00 18,1 C 95 % 1012 hPa 0,0 l/m S-SW 0,9 km/h (0 Bft)
10.09.2005 17:00 18,3 C 92 % 1012 hPa 0,0 l/m S 1,3 km/h (1 Bft)
10.09.2005 18:00 17,7 C 94 % 1012 hPa 0,0 l/m S 4,5 km/h (1 Bft)
10.09.2005 19:00 16,9 C 96 % 1012 hPa 0,0 l/m S 1,5 km/h (1 Bft)
10.09.2005 20:00 16,5 C 98 % 1012 hPa 0,0 l/m S 2,2 km/h (1 Bft)
10.09.2005 21:00 16,1 C 99 % 1012 hPa 0,0 l/m N 0,0 km/h (0 Bft)
10.09.2005 22:00 15,7 C 99 % 1012 hPa 0,0 l/m N 0,0 km/h (0 Bft)
10.09.2005 23:00 15,3 C 100 % 1012 hPa 0,0 l/m S 3,4 km/h (1 Bft)
11.09.2005 00:00 15,0 C 100 % 1012 hPa 0,0 l/m N 0,0 km/h (0 Bft)
11.09.2005 01:00 15,1 C 100 % 1012 hPa 0,0 l/m N 0,0 km/h (0 Bft)
11.09.2005 02:00 14,8 C 100 % 1012 hPa 0,0 l/m N 0,0 km/h (0 Bft)
11.09.2005 03:00 14,7 C 100 % 1011 hPa 0,0 l/m N 0,0 km/h (0 Bft)
11.09.2005 04:00 14,5 C 100 % 1011 hPa 0,0 l/m N 0,1 km/h (0 Bft)
11.09.2005 05:00 14,3 C 100 % 1011 hPa 0,0 l/m N 0,0 km/h (0 Bft)
11.09.2005 06:00 14,1 C 100 % 1011 hPa 0,0 l/m N 0,0 km/h (0 Bft)
11.09.2005 07:00 14,3 C 100 % 1011 hPa 0,0 l/m N 0,0 km/h (0 Bft)
11.09.2005 08:00 14,5 C 100 % 1011 hPa 0,0 l/m S-SW 0,4 km/h (0 Bft)
11.09.2005 09:00 14,7 C 100 % 1011 hPa 0,0 l/m S 1,5 km/h (1 Bft)
11.09.2005 10:00 15,1 C 100 % 1011 hPa 0,0 l/m S 3,5 km/h (1 Bft)
11.09.2005 11:00 16,0 C 100 % 1011 hPa 0,0 l/m S 5,4 km/h (1 Bft)
11.09.2005 12:00 16,3 C 99 % 1011 hPa 0,0 l/m S-SW 5,0 km/h (1 Bft)
11.09.2005 13:00 17,1 C 91 % 1011 hPa 0,0 l/m S-SW 7,9 km/h (2 Bft)
11.09.2005 14:00 18,7 C 78 % 1011 hPa 0,0 l/m S-SW 8,1 km/h (2 Bft)
11.09.2005 15:00 18,9 C 75 % 1011 hPa 0,0 l/m S 2,6 km/h (1 Bft)
11.09.2005 16:00 19,0 C 71 % 1011 hPa 0,0 l/m W-SW 2,6 km/h (1 Bft)
11.09.2005 17:00 19,0 C 69 % 1010 hPa 0,0 l/m W-SW 1,2 km/h (1 Bft)
11.09.2005 18:00 18,4 C 73 % 1010 hPa 0,0 l/m S-SW 0,9 km/h (0 Bft)
11.09.2005 19:00 16,8 C 80 % 1010 hPa 0,0 l/m W-SW 0,5 km/h (0 Bft)
11.09.2005 20:00 15,8 C 87 % 1011 hPa 0,0 l/m W-SW 5,1 km/h (1 Bft)
11.09.2005 21:00 15,0 C 91 % 1011 hPa 0,0 l/m W-SW 2,7 km/h (1 Bft)
11.09.2005 22:00 14,7 C 93 % 1011 hPa 0,0 l/m N 0,0 km/h (0 Bft)
11.09.2005 23:00 14,2 C 94 % 1011 hPa 0,0 l/m N 0,0 km/h (0 Bft)
Min-Datum _ 05.09.05 07.09.05 09.09.05 - - 05.09.05
_ Min-Zeit 06:58 15:48 15:31 - - 00:00
Minimum _ 10,4 C 25 % 1010 hPa - - 0,0 km/h (0 Bft)
Max-Datum _ 07.09.05 10.09.05 05.09.05 09.09.05 - 06.09.05
_ Max-Zeit 15:37 00:29 00:00 20:53 - 16:57
Maximum _ 29,1 C 100 % 1022 hPa 6,0 l/m - 23,7 km/h
O (4 Bft)
Durchschnitt _ 18,2 C 76 % 1014 hPa #27,0 l/m S 2,5 km/h (1 Bft)

Durchschnitt Minimum Temp.17,6 C
Durchschnitt Maximum Temp.18,7 C